Time;durP1;ratioP1;P1;durP2;ratioP2;P2;SDS_P1;SDS_P2;PMS_P1;PMS_P2;Temp;Humidity;BMP_temperature;BMP_pressure;BME280_temperature;BME280_humidity;BME280_pressure;Samples;Min_cycle;Max_cycle;Signal;HPM_P1;HPM_P2
2022/04/26 03:36:32;;;;;;;;;37.00;32.50;;;;;11.86;61.19;101009.69;4974588;28;45614;-84
2022/04/26 03:38:57;;;;;;;;;34.50;30.50;;;;;11.81;61.04;101003.75;4974549;28;45411;-84
2022/04/26 03:41:23;;;;;;;;;35.25;30.75;;;;;11.80;60.93;101001.16;4958633;28;45538;-84
2022/04/26 03:43:48;;;;;;;;;35.00;32.75;;;;;11.79;61.08;100999.47;4974557;28;46330;-84
2022/04/26 03:46:13;;;;;;;;;35.50;32.50;;;;;11.79;61.02;101002.13;4958425;28;45792;-84
2022/04/26 03:48:38;;;;;;;;;38.50;32.25;;;;;11.84;61.17;101005.38;4974219;28;46450;-84
2022/04/26 03:51:04;;;;;;;;;38.25;33.75;;;;;11.79;61.27;101013.66;4974802;28;45782;-84
2022/04/26 03:53:29;;;;;;;;;39.75;33.50;;;;;11.78;61.23;101013.72;4959116;28;45521;-84
2022/04/26 03:55:54;;;;;;;;;34.25;32.00;;;;;11.75;61.60;101005.91;4975118;28;45648;-84
2022/04/26 03:58:20;;;;;;;;;39.50;33.75;;;;;11.70;61.38;101004.34;4958329;28;45510;-84
2022/04/26 04:00:45;;;;;;;;;36.75;34.25;;;;;11.66;61.57;101002.78;4974143;28;52585;-83
2022/04/26 04:03:10;;;;;;;;;41.25;32.50;;;;;11.73;61.71;101006.84;4974503;28;47367;-84
2022/04/26 04:05:36;;;;;;;;;42.50;35.75;;;;;11.77;61.44;101012.88;4974262;28;46208;-84
2022/04/26 04:08:02;;;;;;;;;35.25;31.25;;;;;11.75;61.29;101016.56;4958386;28;45497;-84
2022/04/26 04:10:27;;;;;;;;;37.25;32.50;;;;;11.73;61.63;101025.50;4983587;28;45533;-84
2022/04/26 04:12:53;;;;;;;;;40.00;35.50;;;;;11.66;61.76;101017.94;5014767;28;47393;-83
2022/04/26 04:15:18;;;;;;;;;38.75;33.75;;;;;11.71;61.83;101026.53;5016195;28;45770;-84
2022/04/26 04:17:43;;;;;;;;;38.75;33.00;;;;;11.68;61.91;101027.56;5016260;28;45265;-84
2022/04/26 04:20:10;;;;;;;;;42.50;34.25;;;;;11.64;62.04;101027.81;5016289;28;45528;-84
2022/04/26 04:22:35;;;;;;;;;38.25;35.50;;;;;11.63;62.06;101031.47;5016045;28;45357;-84
2022/04/26 04:25:00;;;;;;;;;37.00;34.25;;;;;11.55;62.34;101023.03;5031166;28;48222;-84
2022/04/26 04:27:26;;;;;;;;;37.50;32.00;;;;;11.57;62.05;101045.13;5014707;28;45428;-84
2022/04/26 04:29:51;;;;;;;;;37.25;32.25;;;;;11.55;62.30;101031.03;5016144;28;45445;-83
2022/04/26 04:32:17;;;;;;;;;40.25;34.75;;;;;11.58;62.24;101038.84;5015908;28;45286;-84
2022/04/26 04:34:42;;;;;;;;;45.25;35.75;;;;;11.56;61.95;101038.94;5016341;28;45333;-84
2022/04/26 04:37:08;;;;;;;;;36.75;33.75;;;;;11.50;62.24;101036.63;5014688;28;45475;-84
2022/04/26 04:39:34;;;;;;;;;45.25;34.00;;;;;11.55;62.38;101050.56;5030611;28;45435;-84
2022/04/26 04:41:59;;;;;;;;;41.25;35.25;;;;;11.52;62.29;101048.06;5015231;28;46419;-84
2022/04/26 04:44:25;;;;;;;;;42.75;37.25;;;;;11.54;62.59;101051.47;5014968;28;45321;-84
2022/04/26 04:46:51;;;;;;;;;44.00;38.50;;;;;11.57;62.36;101053.13;5015411;28;45564;-84
2022/04/26 04:49:16;;;;;;;;;41.75;35.75;;;;;11.52;62.40;101056.91;5013856;28;45460;-84
2022/04/26 04:51:42;;;;;;;;;45.75;36.50;;;;;11.55;62.32;101057.69;5013203;28;47506;-84
2022/04/26 04:54:07;;;;;;;;;43.50;35.75;;;;;11.54;62.33;101072.81;5014641;28;50892;-84
2022/04/26 04:56:32;;;;;;;;;36.25;33.00;;;;;11.50;62.46;101060.63;5013964;28;46038;-84
2022/04/26 04:58:58;;;;;;;;;41.75;36.00;;;;;11.48;62.39;101068.69;5015916;28;45326;-84
2022/04/26 05:01:23;;;;;;;;;46.75;38.50;;;;;11.51;62.69;101072.97;5013087;28;46557;-84
2022/04/26 05:03:50;;;;;;;;;44.00;35.75;;;;;11.55;62.38;101079.03;5014700;28;45433;-84
2022/04/26 05:06:16;;;;;;;;;40.75;34.75;;;;;11.51;62.35;101079.16;5013224;28;45409;-84
2022/04/26 05:08:46;;;;;;;;;37.50;33.75;;;;;11.56;62.45;101084.25;5014824;28;45554;-84
2022/04/26 05:11:11;;;;;;;;;43.00;37.75;;;;;11.53;62.72;101079.09;5013349;28;47438;-84
2022/04/26 05:13:37;;;;;;;;;45.00;38.00;;;;;11.53;62.66;101087.09;5015231;28;46019;-84
2022/04/26 05:16:03;;;;;;;;;41.75;36.00;;;;;11.51;62.69;101087.16;5014636;28;45427;-83
2022/04/26 05:18:28;;;;;;;;;43.25;38.00;;;;;11.53;62.63;101084.44;5014735;28;45400;-83
2022/04/26 05:20:54;;;;;;;;;46.75;40.50;;;;;11.56;62.78;101094.91;5014522;28;46387;-84
2022/04/26 05:26:03;;;;;;;;;44.25;37.00;;;;;11.59;62.71;101101.88;5011152;28;45463;-84
2022/04/26 05:28:28;;;;;;;;;45.25;40.00;;;;;11.55;62.94;101095.88;5014126;28;51149;-84
2022/04/26 05:30:54;;;;;;;;;46.75;37.00;;;;;11.59;62.93;101110.75;5014696;28;46041;-83
2022/04/26 05:33:21;;;;;;;;;47.50;39.25;;;;;11.56;62.93;101105.59;5011225;28;45746;-83
2022/04/26 05:35:48;;;;;;;;;47.25;37.25;;;;;11.59;62.80;101117.88;5001117;28;45519;-84
2022/04/26 05:38:14;;;;;;;;;51.75;41.50;;;;;11.58;62.89;101116.19;5015154;28;45323;-83
2022/04/26 05:40:40;;;;;;;;;44.00;38.75;;;;;11.58;63.31;101122.38;5013543;28;48128;-83
2022/04/26 05:43:05;;;;;;;;;49.00;38.50;;;;;11.61;63.36;101127.53;5014673;28;45438;-83
2022/04/26 05:45:31;;;;;;;;;51.75;41.25;;;;;11.60;63.35;101124.97;5014851;28;45457;-83
2022/04/26 05:47:56;;;;;;;;;49.25;40.50;;;;;11.63;63.26;101130.13;5014744;28;45383;-83
2022/04/26 05:50:22;;;;;;;;;45.75;38.50;;;;;11.70;63.04;101129.69;5013019;28;46369;-83
2022/04/26 05:52:47;;;;;;;;;49.00;41.00;;;;;11.71;63.16;101138.56;5013989;28;45605;-83
2022/04/26 05:55:12;;;;;;;;;53.75;43.00;;;;;11.63;63.05;101122.13;5014685;28;45352;-84
2022/04/26 05:57:39;;;;;;;;;51.50;41.50;;;;;11.73;63.00;101137.53;5013213;28;45392;-83
2022/04/26 06:00:07;;;;;;;;;52.25;42.25;;;;;11.73;62.90;101131.34;5014502;28;45409;-84
2022/04/26 06:02:32;;;;;;;;;54.25;42.25;;;;;11.77;63.11;101130.22;5013369;28;45539;-83
2022/04/26 06:04:57;;;;;;;;;54.25;40.75;;;;;11.77;63.27;101140.91;5010220;28;45635;-83
2022/04/26 06:07:23;;;;;;;;;54.25;43.00;;;;;11.83;63.12;101139.69;5013785;28;45558;-83
2022/04/26 06:09:50;;;;;;;;;54.00;43.50;;;;;11.82;63.03;101136.16;5013278;28;45537;-84
2022/04/26 06:12:15;;;;;;;;;58.00;47.50;;;;;11.87;63.17;101139.47;5013730;28;45888;-84
2022/04/26 06:14:41;;;;;;;;;54.50;43.50;;;;;11.95;62.92;101139.03;5011109;28;46488;-83
2022/04/26 06:17:06;;;;;;;;;55.25;42.00;;;;;11.99;62.83;101145.94;5011993;28;45499;-84
2022/04/26 06:19:31;;;;;;;;;53.00;43.25;;;;;11.98;62.44;101128.22;5012709;28;45955;-83
2022/04/26 06:21:57;;;;;;;;;57.50;46.00;;;;;11.97;62.95;101130.97;5011492;28;45435;-83
2022/04/26 06:24:23;;;;;;;;;56.50;45.75;;;;;11.99;62.94;101135.25;5013473;28;45466;-83
2022/04/26 06:26:49;;;;;;;;;55.50;45.25;;;;;11.90;63.10;101125.09;5012347;28;45490;-84
2022/04/26 06:29:14;;;;;;;;;51.25;42.75;;;;;11.87;63.10;101128.81;5013500;28;45976;-84
2022/04/26 06:31:40;;;;;;;;;59.75;46.75;;;;;11.92;63.23;101142.75;5013118;28;45564;-84
2022/04/26 06:34:05;;;;;;;;;55.50;44.25;;;;;11.94;62.95;101137.34;5026839;28;45570;-83
2022/04/26 06:36:31;;;;;;;;;59.00;45.50;;;;;11.88;63.13;101145.66;5001719;28;45638;-83
2022/04/26 06:38:56;;;;;;;;;59.50;46.25;;;;;11.94;63.16;101153.34;5001595;28;48463;-83
2022/04/26 06:41:21;;;;;;;;;55.25;43.00;;;;;11.99;63.09;101158.44;5009100;28;45588;-83
2022/04/26 06:43:47;;;;;;;;;56.50;45.50;;;;;11.92;63.07;101155.22;5010661;28;45436;-83
2022/04/26 06:46:12;;;;;;;;;60.25;47.00;;;;;11.91;63.30;101148.19;5008250;28;45579;-84
2022/04/26 06:48:37;;;;;;;;;56.00;43.25;;;;;11.87;63.40;101144.81;5008535;28;48589;-84
2022/04/26 06:51:03;;;;;;;;;59.75;47.25;;;;;11.96;63.11;101150.59;5012706;28;45587;-83
2022/04/26 06:53:28;;;;;;;;;58.25;47.50;;;;;11.96;62.90;101147.94;5030191;28;45563;-83
2022/04/26 06:55:53;;;;;;;;;58.00;45.50;;;;;12.01;63.15;101161.88;5009784;28;45622;-83
2022/04/26 06:58:20;;;;;;;;;56.25;44.75;;;;;12.00;62.91;101165.47;5011675;28;48237;-83
2022/04/26 07:00:46;;;;;;;;;55.25;46.00;;;;;12.04;62.78;101170.56;5002809;28;45529;-84
2022/04/26 07:03:12;;;;;;;;;59.00;46.25;;;;;12.08;62.86;101171.25;5005987;28;45526;-83
2022/04/26 07:05:37;;;;;;;;;60.25;45.50;;;;;12.11;62.94;101176.41;5011150;28;45445;-83
2022/04/26 07:08:03;;;;;;;;;51.50;41.50;;;;;12.13;62.78;101182.53;5002910;28;46459;-81
2022/04/26 07:10:31;;;;;;;;;60.75;47.50;;;;;12.24;62.39;101173.91;5019322;28;45583;-83
2022/04/26 07:12:56;;;;;;;;;58.00;46.25;;;;;12.16;62.17;101171.69;5005627;28;45597;-83
2022/04/26 07:15:22;;;;;;;;;57.50;45.25;;;;;12.02;62.35;101152.91;5005457;28;45534;-83
2022/04/26 07:17:47;;;;;;;;;64.50;48.50;;;;;12.13;62.27;101175.38;5011109;28;46186;-84
2022/04/26 07:20:12;;;;;;;;;58.25;48.00;;;;;12.15;62.64;101186.00;5015284;28;45617;-83
2022/04/26 07:22:38;;;;;;;;;59.25;46.00;;;;;12.17;62.56;101186.78;5016825;28;45296;-83
2022/04/26 07:25:07;;;;;;;;;55.50;46.00;;;;;12.22;62.37;101192.72;5016133;28;45393;-83
2022/04/26 07:27:33;;;;;;;;;61.25;45.25;;;;;12.26;62.24;101188.91;5016069;28;45431;-83
2022/04/26 07:29:59;;;;;;;;;62.25;48.50;;;;;12.26;62.12;101190.72;5016337;28;45522;-83
2022/04/26 07:34:20;;;;;;;;;59.75;47.25;;;;;12.18;62.55;101188.47;5014850;28;45358;-83
2022/04/26 07:35:11;;;;;;;;;61.50;48.75;;;;;12.29;62.21;101194.09;5013689;28;45436;-83
2022/04/26 07:37:38;;;;;;;;;58.75;47.50;;;;;12.40;62.00;101197.94;5003536;28;45338;-83
2022/04/26 07:40:04;;;;;;;;;56.75;46.00;;;;;12.44;61.72;101205.72;5012912;28;45466;-83
2022/04/26 07:42:30;;;;;;;;;59.50;47.75;;;;;12.40;61.82;101189.94;5026393;28;45587;-83
2022/04/26 07:44:55;;;;;;;;;58.75;47.75;;;;;12.43;61.81;101195.97;5027144;28;45480;-83
2022/04/26 07:47:24;;;;;;;;;59.00;48.00;;;;;12.48;61.75;101219.72;5010133;28;47368;-83
2022/04/26 07:49:50;;;;;;;;;59.75;46.50;;;;;12.46;61.66;101198.47;5009593;28;45835;-83
2022/04/26 07:52:16;;;;;;;;;57.50;47.25;;;;;12.48;61.64;101207.25;5014917;28;45414;-83
2022/04/26 07:54:42;;;;;;;;;59.25;45.50;;;;;12.55;61.99;101218.44;5013743;28;45775;-83
2022/04/26 07:57:07;;;;;;;;;57.50;47.50;;;;;12.31;61.32;101184.19;5009574;28;47599;-83
2022/04/26 07:59:33;;;;;;;;;59.75;46.50;;;;;12.60;61.08;101227.03;5027480;28;45973;-83
2022/04/26 08:01:58;;;;;;;;;61.75;46.50;;;;;12.68;60.65;101223.97;5006930;28;45510;-83
2022/04/26 08:04:23;;;;;;;;;57.75;47.00;;;;;12.73;61.38;101228.09;5013094;28;45595;-83
2022/04/26 08:06:49;;;;;;;;;57.75;47.75;;;;;12.78;61.16;101228.69;5011397;28;45586;-83
2022/04/26 08:09:14;;;;;;;;;58.25;47.00;;;;;12.89;60.27;101237.88;5005456;28;46920;-83
2022/04/26 08:11:40;;;;;;;;;58.00;45.50;;;;;12.92;60.04;101229.69;5010181;28;45842;-83
2022/04/26 08:14:05;;;;;;;;;60.50;47.25;;;;;13.05;59.80;101232.50;5014477;28;45455;-83
2022/04/26 08:16:31;;;;;;;;;60.50;48.25;;;;;13.03;59.67;101227.25;5010134;28;46365;-83
2022/04/26 08:18:56;;;;;;;;;57.50;46.25;;;;;13.07;59.70;101223.44;5010945;28;45557;-83
2022/04/26 08:21:22;;;;;;;;;61.25;49.50;;;;;13.07;59.83;101231.47;5011655;28;45518;-83
2022/04/26 08:29:31;;;;;;;;;59.00;49.50;;;;;13.40;58.97;101247.34;4996968;28;45548;-83
2022/04/26 08:31:56;;;;;;;;;60.75;48.75;;;;;13.48;58.51;101248.72;5012816;28;45454;-83
2022/04/26 08:34:22;;;;;;;;;56.00;44.00;;;;;13.58;58.39;101248.06;5013001;28;45504;-83
2022/04/26 08:36:48;;;;;;;;;56.50;43.50;;;;;13.71;57.49;101256.22;5008310;28;46373;-83
2022/04/26 08:39:14;;;;;;;;;56.25;45.25;;;;;13.69;57.33;101259.94;4987763;28;45537;-83
2022/04/26 08:41:39;;;;;;;;;56.00;45.75;;;;;13.64;56.74;101250.38;4996508;28;45390;-83
2022/04/26 08:44:09;;;;;;;;;54.50;42.00;;;;;13.62;57.10;101251.41;5002058;28;45492;-83
2022/04/26 08:52:06;;;;;;;;;54.25;43.75;;;;;13.63;56.95;101264.69;5006329;28;45595;-83
2022/04/26 08:54:31;;;;;;;;;51.75;44.00;;;;;13.68;57.19;101272.44;5008387;28;45610;-83
2022/04/26 08:56:56;;;;;;;;;48.25;39.00;;;;;13.60;56.92;101283.59;5012195;28;46278;-83
2022/04/26 08:59:22;;;;;;;;;53.25;43.00;;;;;13.52;56.88;101277.88;4994370;28;45658;-84
2022/04/26 09:01:47;;;;;;;;;56.25;46.00;;;;;13.52;56.59;101279.69;4988135;28;45645;-84
2022/04/26 09:04:15;;;;;;;;;58.25;45.50;;;;;13.54;56.73;101280.44;5011374;28;45921;-83
2022/04/26 09:06:45;;;;;;;;;53.75;44.00;;;;;13.53;56.99;101290.28;5009067;28;45495;-83
2022/04/26 09:09:15;;;;;;;;;54.50;44.50;;;;;13.54;56.73;101281.31;5004714;28;45562;-84
2022/04/26 09:11:42;;;;;;;;;46.75;40.00;;;;;13.62;56.33;101287.06;5012892;28;45666;-84
2022/04/26 09:14:32;;;;;;;;;57.75;44.00;;;;;13.72;55.82;101283.81;5011914;28;45573;-83
2022/04/26 09:17:09;;;;;;;;;53.50;43.00;;;;;13.69;56.21;101294.72;5009320;28;46576;-83
2022/04/26 09:19:53;;;;;;;;;55.50;43.00;;;;;13.75;55.95;101280.94;5010608;28;45692;-83
2022/04/26 09:22:25;;;;;;;;;51.75;41.50;;;;;13.80;55.87;101298.44;5011810;28;45404;-83
2022/04/26 09:25:06;;;;;;;;;59.00;46.50;;;;;13.79;55.43;101294.06;5011954;28;45486;-83
2022/04/26 09:27:38;;;;;;;;;52.75;44.00;;;;;13.77;55.24;101298.63;5009508;28;45551;-83
2022/04/26 09:30:12;;;;;;;;;57.50;45.50;;;;;13.83;55.31;101300.09;5012227;28;45565;-83
2022/04/26 09:32:49;;;;;;;;;54.75;43.00;;;;;14.01;54.69;101319.50;5009896;28;46003;-82
2022/04/26 09:35:28;;;;;;;;;56.75;45.25;;;;;13.93;54.78;101317.31;5010977;28;45420;-83
2022/04/26 09:37:53;;;;;;;;;58.50;45.50;;;;;13.99;55.09;101316.06;5028977;28;48129;-83
2022/04/26 09:40:20;;;;;;;;;57.75;43.25;;;;;13.97;55.07;101310.78;5012533;28;45629;-83
2022/04/26 09:42:48;;;;;;;;;54.75;41.25;;;;;14.06;55.00;101317.41;5012616;28;45289;-83
2022/04/26 09:45:15;;;;;;;;;51.25;42.00;;;;;14.11;54.59;101322.50;5011491;28;45599;-83
2022/04/26 09:47:42;;;;;;;;;55.00;45.25;;;;;14.07;54.31;101317.31;5012510;28;46195;-83
2022/04/26 09:50:13;;;;;;;;;53.50;43.75;;;;;14.14;54.77;101323.16;5009919;28;45564;-85
2022/04/26 09:52:41;;;;;;;;;56.50;44.50;;;;;14.22;54.67;101320.88;5013463;28;45439;-83
2022/04/26 09:55:09;;;;;;;;;51.25;41.50;;;;;14.17;54.59;101314.09;5009796;28;45501;-83
2022/04/26 09:57:38;;;;;;;;;55.00;43.25;;;;;14.22;54.54;101328.91;5009903;28;48081;-83
2022/04/26 10:00:10;;;;;;;;;57.50;45.00;;;;;14.11;54.43;101314.44;5011926;28;45326;-83
2022/04/26 10:02:37;;;;;;;;;59.00;44.75;;;;;14.17;54.95;101333.69;5012416;28;45317;-83
2022/04/26 10:05:05;;;;;;;;;54.25;43.00;;;;;14.24;55.13;101331.50;5011691;28;45511;-83
2022/04/26 10:07:43;;;;;;;;;57.00;45.25;;;;;14.40;54.58;101328.69;5027922;28;47610;-83
2022/04/26 10:10:09;;;;;;;;;52.75;43.50;;;;;14.60;54.55;101332.81;5012695;28;45473;-83
2022/04/26 10:12:35;;;;;;;;;48.50;39.50;;;;;14.65;53.98;101323.56;5010912;28;45469;-83
2022/04/26 10:15:01;;;;;;;;;52.50;42.75;;;;;14.74;54.01;101326.59;5006179;28;45535;-83
2022/04/26 10:17:30;;;;;;;;;55.00;45.25;;;;;14.72;53.84;101323.16;5010120;28;48132;-83
2022/04/26 10:19:55;;;;;;;;;54.00;43.50;;;;;14.73;53.16;101328.41;5013421;28;45696;-82
2022/04/26 10:22:53;;;;;;;;;51.75;42.00;;;;;14.82;53.16;101321.63;5027416;28;45537;-83
2022/04/26 10:25:21;;;;;;;;;58.00;46.50;;;;;15.00;53.32;101332.94;4968345;28;45470;-83
2022/04/26 10:28:29;;;;;;;;;53.75;44.25;;;;;15.23;53.12;101324.25;4965159;28;46113;-83
2022/04/26 10:30:56;;;;;;;;;56.50;45.25;;;;;15.37;52.55;101328.72;4960314;28;45581;-83
2022/04/26 10:33:42;;;;;;;;;53.25;44.50;;;;;15.50;51.83;101320.69;4944504;28;45521;-83
2022/04/26 10:36:34;;;;;;;;;48.50;38.75;;;;;15.79;51.87;101344.72;4957386;28;45712;-83
2022/04/26 10:39:11;;;;;;;;;54.00;44.00;;;;;15.74;50.76;101342.34;4963081;28;47168;-83
2022/04/26 10:41:39;;;;;;;;;43.00;37.00;;;;;15.71;50.98;101340.75;4953752;28;45696;-83
2022/04/26 10:44:15;;;;;;;;;49.00;40.00;;;;;15.65;49.41;101337.56;4954691;28;45475;-82
2022/04/26 10:46:44;;;;;;;;;52.25;41.75;;;;;15.54;50.04;101335.63;4975087;28;45497;-83
2022/04/26 10:49:25;;;;;;;;;44.00;38.00;;;;;15.55;50.33;101338.19;4967643;28;46725;-84
2022/04/26 10:51:57;;;;;;;;;47.00;39.00;;;;;15.50;50.60;101328.75;4968005;28;45607;-83
2022/04/26 10:55:01;;;;;;;;;46.00;40.00;;;;;15.55;49.80;101340.88;4949226;28;45746;-82
2022/04/26 10:57:29;;;;;;;;;47.75;40.00;;;;;15.49;49.85;101333.25;4966807;28;45859;-82
2022/04/26 11:00:25;;;;;;;;;48.50;39.25;;;;;15.54;50.25;101341.84;4968809;28;45595;-82
2022/04/26 11:02:50;;;;;;;;;51.50;40.75;;;;;15.54;50.51;101338.31;5000643;28;45374;-85
2022/04/26 11:05:30;;;;;;;;;45.75;39.00;;;;;15.61;50.34;101344.09;5015861;28;45489;-85
2022/04/26 11:07:55;;;;;;;;;50.50;41.25;;;;;15.68;50.76;101350.78;5016144;28;45442;-85
2022/04/26 11:11:00;;;;;;;;;47.25;40.50;;;;;15.75;50.30;101325.28;5013270;28;48111;-85
2022/04/26 11:13:20;;;;;;;;;49.75;40.50;;;;;15.74;49.60;101324.41;5014456;28;45372;-83
2022/04/26 11:15:46;;;;;;;;;50.50;40.00;;;;;15.79;49.12;101339.34;5013231;28;45515;-84
2022/04/26 11:18:19;;;;;;;;;47.75;39.00;;;;;15.74;49.62;101334.31;5013836;28;45400;-83
2022/04/26 11:20:47;;;;;;;;;49.00;40.00;;;;;15.74;49.60;101319.03;5015691;28;45917;-82
2022/04/26 11:28:57;;;;;;;;;48.75;40.00;;;;;16.07;49.44;101328.44;4973642;28;45779;-82
2022/04/26 11:31:22;;;;;;;;;46.00;38.25;;;;;16.10;49.48;101330.91;4957028;28;47134;-82
2022/04/26 11:33:49;;;;;;;;;47.00;39.25;;;;;16.16;49.42;101329.59;4957170;28;45874;-82
2022/04/26 11:36:14;;;;;;;;;47.25;38.75;;;;;16.15;49.39;101333.25;4972295;28;45470;-82
2022/04/26 11:38:40;;;;;;;;;51.25;40.25;;;;;16.10;48.94;101348.84;4971002;28;45927;-83
2022/04/26 11:41:05;;;;;;;;;48.25;40.50;;;;;15.98;49.46;101329.06;4972614;28;45552;-83
2022/04/26 11:43:33;;;;;;;;;48.25;40.25;;;;;16.04;49.87;101331.31;4957417;28;45401;-83
2022/04/26 11:46:00;;;;;;;;;47.75;40.50;;;;;16.02;49.62;101335.06;4972992;28;47018;-82
2022/04/26 11:48:32;;;;;;;;;50.50;42.00;;;;;15.95;49.48;101337.34;4972643;28;45572;-83
2022/04/26 11:50:59;;;;;;;;;49.25;41.25;;;;;15.92;49.42;101329.47;4973029;28;45914;-83
2022/04/26 11:53:27;;;;;;;;;47.25;40.50;;;;;15.87;50.17;101343.22;4978990;28;45460;-84
2022/04/26 11:56:02;;;;;;;;;48.00;38.00;;;;;15.87;50.12;101342.38;4953973;28;45505;-83
2022/04/26 11:58:28;;;;;;;;;46.25;38.00;;;;;15.88;50.21;101336.03;4972732;28;45614;-83
2022/04/26 12:00:56;;;;;;;;;42.00;36.25;;;;;15.93;50.02;101331.22;4974183;28;46352;-83
2022/04/26 12:03:27;;;;;;;;;45.00;38.25;;;;;16.00;49.95;101332.50;4975813;28;45453;-82
2022/04/26 12:06:01;;;;;;;;;38.00;32.25;;;;;16.02;50.11;101338.63;4981755;28;45491;-83
2022/04/26 12:08:28;;;;;;;;;42.00;34.75;;;;;16.15;49.38;101336.81;5008436;28;45491;-83
2022/04/26 12:10:54;;;;;;;;;42.00;34.75;;;;;16.31;48.81;101333.06;5010095;28;46227;-83
2022/04/26 12:13:31;;;;;;;;;37.00;30.75;;;;;16.27;48.95;101339.59;5011433;28;45860;-83
2022/04/26 12:16:19;;;;;;;;;45.50;35.75;;;;;16.26;48.64;101335.19;5028073;28;45527;-84
2022/04/26 12:18:52;;;;;;;;;44.25;37.00;;;;;16.20;49.17;101339.16;5008879;28;45535;-83
2022/04/26 12:21:18;;;;;;;;;38.50;33.00;;;;;16.08;49.22;101334.66;5012186;28;48234;-83
2022/04/26 12:23:43;;;;;;;;;45.75;35.75;;;;;16.07;49.36;101339.16;5011275;28;45550;-83
2022/04/26 12:26:09;;;;;;;;;43.00;35.00;;;;;16.18;49.28;101347.31;5014531;28;45582;-83
2022/04/26 12:28:49;;;;;;;;;40.75;34.50;;;;;16.23;49.20;101341.63;5014171;28;45432;-83
2022/04/26 12:31:29;;;;;;;;;38.00;33.50;;;;;16.34;49.39;101346.25;5011497;28;47219;-83
2022/04/26 12:34:15;;;;;;;;;38.50;34.50;;;;;16.30;48.48;101332.16;5010029;28;45534;-83
2022/04/26 12:36:59;;;;;;;;;41.75;35.25;;;;;16.52;48.52;101333.31;5011333;28;45603;-83
2022/04/26 12:39:43;;;;;;;;;34.50;30.00;;;;;16.73;48.35;101326.41;5011663;28;45713;-84
2022/04/26 12:42:10;;;;;;;;;39.00;34.25;;;;;16.91;47.77;101323.38;5027880;28;46888;-82
2022/04/26 12:44:39;;;;;;;;;40.00;34.25;;;;;17.18;47.06;101329.41;5010411;28;45625;-83
2022/04/26 12:52:45;;;;;;;;;35.25;32.75;;;;;17.63;45.10;101329.59;5012292;28;45452;-83
2022/04/26 12:55:10;;;;;;;;;29.00;27.50;;;;;17.62;44.92;101318.94;5009740;28;45532;-82
2022/04/26 12:57:50;;;;;;;;;35.75;31.75;;;;;17.63;44.99;101326.03;5005639;28;45496;-82
2022/04/26 13:00:17;;;;;;;;;31.50;29.75;;;;;17.66;43.82;101318.59;5007530;28;45578;-83
2022/04/26 13:02:42;;;;;;;;;32.75;28.75;;;;;17.65;44.02;101316.00;5010113;28;46039;-83
2022/04/26 13:05:08;;;;;;;;;30.50;30.50;;;;;17.81;44.68;101321.13;5011941;28;45537;-83
2022/04/26 13:07:33;;;;;;;;;30.25;26.50;;;;;17.81;44.31;101319.28;5013131;28;45529;-83
2022/04/26 13:09:58;;;;;;;;;32.75;29.50;;;;;17.82;44.26;101320.13;5013277;28;45862;-82
2022/04/26 13:12:24;;;;;;;;;29.75;27.25;;;;;17.73;44.03;101300.13;5012405;28;45965;-82
2022/04/26 13:14:50;;;;;;;;;30.75;29.75;;;;;17.88;43.75;101317.81;5013624;28;45569;-83
2022/04/26 13:17:16;;;;;;;;;29.00;28.50;;;;;17.76;43.34;101310.66;5013871;28;45474;-83
2022/04/26 13:19:41;;;;;;;;;26.50;22.75;;;;;17.73;43.76;101304.66;5011739;28;45481;-83
2022/04/26 13:22:07;;;;;;;;;29.50;27.00;;;;;17.77;43.70;101314.22;5013224;28;45475;-83
2022/04/26 13:24:32;;;;;;;;;27.00;25.25;;;;;17.81;44.06;101313.03;5012061;28;45487;-84
2022/04/26 13:26:57;;;;;;;;;29.75;29.25;;;;;17.78;43.33;101303.31;5011901;28;45892;-84
2022/04/26 13:29:23;;;;;;;;;29.25;28.50;;;;;17.75;43.57;101302.69;5011565;28;45691;-83
2022/04/26 13:31:48;;;;;;;;;27.50;26.00;;;;;17.64;43.93;101308.91;5013954;28;46022;-83
2022/04/26 13:34:13;;;;;;;;;35.75;31.75;;;;;17.60;44.53;101315.50;5013291;28;46587;-83
2022/04/26 13:36:39;;;;;;;;;31.75;27.00;;;;;17.61;44.34;101307.31;5013274;28;45514;-83
2022/04/26 13:39:04;;;;;;;;;22.50;20.00;;;;;17.52;43.99;101291.88;5013317;28;45274;-83
2022/04/26 13:41:31;;;;;;;;;25.50;24.75;;;;;17.55;43.74;101304.22;5015491;28;57426;-83
2022/04/26 13:43:57;;;;;;;;;30.50;28.25;;;;;17.65;43.89;101295.34;5013918;28;45529;-82
2022/04/26 13:46:23;;;;;;;;;25.00;24.00;;;;;17.90;44.46;101287.22;5004869;28;45515;-82
2022/04/26 13:48:50;;;;;;;;;25.25;21.25;;;;;18.19;44.09;101288.47;5010782;28;45649;-82
2022/04/26 13:51:15;;;;;;;;;26.75;23.50;;;;;18.36;43.33;101294.34;5012411;28;46054;-82
2022/04/26 13:53:41;;;;;;;;;23.00;21.75;;;;;18.29;42.95;101294.84;5012588;28;45524;-82
2022/04/26 13:56:09;;;;;;;;;21.25;21.25;;;;;18.22;42.98;101287.38;5012248;28;45467;-82
2022/04/26 13:58:34;;;;;;;;;31.25;26.75;;;;;18.11;42.35;101282.81;5011020;28;45502;-82
2022/04/26 14:00:59;;;;;;;;;25.50;25.50;;;;;18.05;43.23;101286.88;5013568;28;46269;-82
2022/04/26 14:03:27;;;;;;;;;29.25;24.25;;;;;18.06;43.33;101280.50;5011986;28;47158;-82
2022/04/26 14:05:52;;;;;;;;;25.25;23.75;;;;;17.91;43.39;101284.41;5012697;28;45490;-83
2022/04/26 14:08:17;;;;;;;;;26.00;24.25;;;;;17.83;43.51;101284.16;5011913;28;45364;-83
2022/04/26 14:10:43;;;;;;;;;21.50;20.50;;;;;17.80;43.75;101278.97;5011326;28;48252;-83
2022/04/26 14:13:09;;;;;;;;;21.25;18.50;;;;;17.88;43.58;101281.94;5013057;28;45455;-83
2022/04/26 14:23:46;;;;;;;;;21.25;18.50;;;;;17.63;43.22;101266.78;5006433;28;45669;-83
2022/04/26 14:26:12;;;;;;;;;22.75;20.25;;;;;17.53;43.18;101273.88;5013197;28;45441;-83
2022/04/26 14:28:37;;;;;;;;;17.75;17.75;;;;;17.48;43.25;101271.53;5014531;28;45639;-83
2022/04/26 14:31:03;;;;;;;;;14.75;14.75;;;;;17.47;43.72;101275.22;5016638;28;46177;-83
2022/04/26 14:33:28;;;;;;;;;24.25;20.75;;;;;17.55;43.71;101275.47;5014227;28;59499;-83
2022/04/26 14:35:53;;;;;;;;;19.00;19.00;;;;;17.52;43.83;101285.63;5015985;28;45484;-83
2022/04/26 14:38:19;;;;;;;;;19.25;18.50;;;;;17.63;43.97;101270.38;5014566;28;45528;-84
2022/04/26 14:40:45;;;;;;;;;20.25;19.00;;;;;17.77;43.43;101284.59;5014640;28;47196;-82
2022/04/26 14:43:10;;;;;;;;;17.50;17.50;;;;;17.79;43.49;101288.03;5013923;28;45527;-83
2022/04/26 14:45:42;;;;;;;;;21.00;19.75;;;;;17.74;43.41;101277.59;5015216;28;45489;-83
2022/04/26 14:48:08;;;;;;;;;18.25;17.00;;;;;17.76;43.18;101272.97;5012871;28;45538;-83
2022/04/26 14:50:33;;;;;;;;;19.25;19.25;;;;;17.71;43.25;101277.00;5014726;28;46908;-83
2022/04/26 14:52:59;;;;;;;;;16.75;16.75;;;;;17.85;43.81;101283.06;5017081;28;45510;-83
2022/04/26 14:55:24;;;;;;;;;18.25;18.25;;;;;18.01;42.92;101281.84;5016062;28;45415;-84
2022/04/26 14:57:50;;;;;;;;;18.50;17.75;;;;;17.97;42.41;101278.53;5013362;28;45584;-83
2022/04/26 15:00:15;;;;;;;;;15.50;15.50;;;;;17.86;42.28;101265.91;5016439;28;46042;-83
2022/04/26 15:02:41;;;;;;;;;16.25;15.25;;;;;18.03;42.39;101285.28;5016472;28;45475;-81
2022/04/26 15:05:08;;;;;;;;;19.50;17.25;;;;;18.15;42.30;101270.81;5015689;28;45349;-83
2022/04/26 15:09:42;;;;;;;;;20.00;19.75;;;;;18.10;41.86;101283.81;5013951;28;45390;-82
2022/04/26 15:10:19;;;;;;;;;17.25;17.00;;;;;18.08;41.71;101283.06;5012650;28;46042;-81
2022/04/26 15:18:13;;;;;;;;;16.50;16.50;;;;;17.82;43.22;101277.03;5015199;28;45539;-85
2022/04/26 15:20:41;;;;;;;;;18.00;18.00;;;;;17.87;42.81;101272.13;5014903;28;46045;-84
2022/04/26 15:23:06;;;;;;;;;16.50;16.25;;;;;17.81;42.42;101278.88;5013841;28;45304;-83
2022/04/26 15:25:32;;;;;;;;;14.25;14.25;;;;;17.78;42.50;101270.16;5030190;28;45586;-83
2022/04/26 15:27:57;;;;;;;;;16.00;15.75;;;;;17.75;42.18;101260.50;5011833;28;45596;-83